createdAt,value
2023-04-29T00:02:44.079Z,99.90
2023-04-29T00:07:46.406Z,99.90
2023-04-29T00:12:49.778Z,99.90
2023-04-29T00:17:52.193Z,99.90
2023-04-29T00:22:54.463Z,99.90
2023-04-29T00:27:56.664Z,99.90
2023-04-29T00:32:58.892Z,99.90
2023-04-29T00:38:01.126Z,99.90
2023-04-29T00:43:03.413Z,99.90
2023-04-29T00:48:06.137Z,99.90
2023-04-29T00:53:10.456Z,99.90
2023-04-29T00:58:12.886Z,99.90
2023-04-29T01:03:15.788Z,99.90
2023-04-29T01:08:48.647Z,99.90
2023-04-29T01:13:58.439Z,99.90
2023-04-29T01:19:13.067Z,99.90
2023-04-29T01:24:17.046Z,99.90
2023-04-29T01:29:59.151Z,99.90
2023-04-29T01:35:22.607Z,99.90
2023-04-29T01:40:38.071Z,99.90
2023-04-29T01:45:45.201Z,99.90
2023-04-29T01:50:49.324Z,99.90
2023-04-29T01:55:52.523Z,99.90
2023-04-29T02:00:57.633Z,99.90
2023-04-29T02:06:02.664Z,99.90
2023-04-29T02:11:04.942Z,99.90
2023-04-29T02:16:15.620Z,99.90
2023-04-29T02:21:27.460Z,99.50
2023-04-29T02:26:29.679Z,99.90
2023-04-29T02:31:32.136Z,99.60
2023-04-29T02:36:34.385Z,99.60
2023-04-29T02:41:36.526Z,99.30
2023-04-29T02:46:41.086Z,99.50
2023-04-29T02:51:43.655Z,99.40
2023-04-29T02:56:45.907Z,99.20
2023-04-29T03:01:48.275Z,99.50
2023-04-29T03:06:50.950Z,99.70
2023-04-29T03:11:53.471Z,99.60
2023-04-29T03:16:56.697Z,99.90
2023-04-29T03:21:59.042Z,99.90
2023-04-29T03:27:01.398Z,99.90
2023-04-29T03:32:03.909Z,99.90
2023-04-29T03:37:06.820Z,99.90
2023-04-29T03:42:12.626Z,99.90
2023-04-29T03:47:14.858Z,99.90
2023-04-29T03:52:17.439Z,99.90
2023-04-29T03:57:22.337Z,99.90
2023-04-29T04:02:25.517Z,99.90
2023-04-29T04:07:28.038Z,99.70
2023-04-29T04:12:50.078Z,99.60
2023-04-29T04:17:52.681Z,99.90
2023-04-29T04:22:55.285Z,99.90
2023-04-29T04:28:05.086Z,99.90
2023-04-29T04:33:26.331Z,99.90
2023-04-29T04:38:28.646Z,99.90
2023-04-29T04:43:31.217Z,99.90
2023-04-29T04:48:33.578Z,99.90
2023-04-29T04:53:35.857Z,99.90
2023-04-29T04:58:43.460Z,99.90
2023-04-29T05:03:46.042Z,99.90
2023-04-29T05:08:48.677Z,99.90
2023-04-29T05:13:51.644Z,99.90
2023-04-29T05:18:54.593Z,99.90
2023-04-29T05:23:59.938Z,99.90
2023-04-29T05:29:02.335Z,99.70
2023-04-29T05:34:10.027Z,99.90
2023-04-29T05:39:12.434Z,98.30
2023-04-29T05:44:14.933Z,98.50
2023-04-29T05:49:17.286Z,98.00
2023-04-29T05:54:19.608Z,98.40
2023-04-29T05:59:22.413Z,97.30
2023-04-29T06:04:28.805Z,99.20
2023-04-29T06:09:58.020Z,97.60
2023-04-29T06:15:01.570Z,97.90
2023-04-29T06:20:04.666Z,97.10
2023-04-29T06:25:07.420Z,99.00
2023-04-29T06:30:21.391Z,98.40
2023-04-29T06:35:23.493Z,99.30
2023-04-29T06:40:39.762Z,97.10
2023-04-29T06:46:05.693Z,97.80
2023-04-29T06:51:16.285Z,96.10
2023-04-29T06:56:18.751Z,96.40
2023-04-29T07:01:23.352Z,97.70
2023-04-29T07:06:27.120Z,97.30
2023-04-29T07:11:29.658Z,97.00
2023-04-29T07:16:31.877Z,98.70
2023-04-29T07:21:34.038Z,96.00
2023-04-29T07:26:36.412Z,96.90
2023-04-29T07:31:38.733Z,95.30
2023-04-29T07:36:41.280Z,93.60
2023-04-29T07:41:43.878Z,95.90
2023-04-29T07:46:46.988Z,93.80
2023-04-29T07:51:49.234Z,93.60
2023-04-29T07:56:51.481Z,95.20
2023-04-29T08:01:55.916Z,93.10
2023-04-29T08:06:58.493Z,92.90
2023-04-29T08:12:01.874Z,94.90
2023-04-29T08:17:05.219Z,93.20
2023-04-29T08:22:07.549Z,93.40
2023-04-29T08:27:09.647Z,93.50
2023-04-29T08:32:12.246Z,92.10
2023-04-29T08:37:17.005Z,92.90
2023-04-29T08:42:35.213Z,92.20
2023-04-29T08:47:38.053Z,92.70
2023-04-29T08:52:40.189Z,94.20
2023-04-29T08:57:45.494Z,94.30
2023-04-29T09:02:53.831Z,93.30
2023-04-29T09:07:59.873Z,94.00
2023-04-29T09:13:02.030Z,94.60
2023-04-29T09:18:04.505Z,95.00
2023-04-29T09:23:06.711Z,95.30
2023-04-29T09:28:18.116Z,94.30
2023-04-29T09:33:20.353Z,93.30
2023-04-29T09:38:22.557Z,94.80
2023-04-29T09:43:24.723Z,94.10
2023-04-29T09:48:33.919Z,92.30
2023-04-29T09:53:38.368Z,92.60
2023-04-29T09:58:40.671Z,90.20
2023-04-29T10:03:44.007Z,91.30
2023-04-29T10:08:48.968Z,87.50
2023-04-29T10:13:52.859Z,77.90
2023-04-29T10:18:56.965Z,74.10
2023-04-29T10:24:02.965Z,72.60
2023-04-29T10:29:08.601Z,67.10
2023-04-29T10:34:14.181Z,75.30
2023-04-29T10:39:44.139Z,74.60
2023-04-29T10:45:28.977Z,75.90
2023-04-29T10:50:35.717Z,74.10
2023-04-29T10:55:39.123Z,77.60
2023-04-29T11:00:41.580Z,72.60
2023-04-29T11:05:46.100Z,74.90
2023-04-29T11:10:48.654Z,72.10
2023-04-29T11:16:04.311Z,69.40
2023-04-29T11:21:06.599Z,69.80
2023-04-29T11:26:09.393Z,69.90
2023-04-29T11:31:12.041Z,73.40
2023-04-29T11:36:14.643Z,68.80
2023-04-29T11:41:20.510Z,68.70
2023-04-29T11:46:22.705Z,75.00
2023-04-29T11:51:24.938Z,68.70
2023-04-29T11:56:27.191Z,72.80
2023-04-29T12:01:29.547Z,71.40
2023-04-29T12:06:31.887Z,73.20
2023-04-29T12:11:34.428Z,72.10
2023-04-29T12:16:37.381Z,66.50
2023-04-29T12:21:50.351Z,63.00
2023-04-29T12:26:54.325Z,60.80
2023-04-29T12:31:56.981Z,58.70
2023-04-29T12:37:03.048Z,58.60
2023-04-29T12:42:05.548Z,60.30
2023-04-29T12:47:12.009Z,61.50
2023-04-29T12:52:14.542Z,63.30
2023-04-29T12:57:16.933Z,63.50
2023-04-29T13:02:19.413Z,63.60
2023-04-29T13:07:21.904Z,62.30
2023-04-29T13:12:24.017Z,62.90
2023-04-29T13:17:26.492Z,62.70
2023-04-29T13:22:29.488Z,62.80
2023-04-29T13:27:32.284Z,60.10
2023-04-29T13:32:43.955Z,59.50
2023-04-29T13:37:48.834Z,58.80
2023-04-29T13:42:59.619Z,58.00
2023-04-29T13:48:20.047Z,56.70
2023-04-29T13:53:51.028Z,58.20
2023-04-29T13:59:23.620Z,58.30
2023-04-29T14:04:13.396Z,61.20
2023-04-29T14:09:16.159Z,62.40
2023-04-29T14:14:18.432Z,58.40
2023-04-29T14:19:20.893Z,60.90
2023-04-29T14:24:23.058Z,62.40
2023-04-29T14:29:25.333Z,60.80
2023-04-29T14:34:27.473Z,61.20
2023-04-29T14:39:29.606Z,63.10
2023-04-29T14:44:31.707Z,61.20
2023-04-29T14:49:34.019Z,64.40
2023-04-29T14:54:36.390Z,63.40
2023-04-29T14:59:38.459Z,63.60
2023-04-29T15:04:45.750Z,64.10
2023-04-29T15:09:48.067Z,63.90
2023-04-29T15:14:51.053Z,63.10
2023-04-29T15:19:53.376Z,65.30
2023-04-29T15:24:55.613Z,64.50
2023-04-29T15:29:58.102Z,64.40
2023-04-29T15:35:02.023Z,64.20
2023-04-29T15:40:05.284Z,64.40
2023-04-29T15:45:08.986Z,64.30
2023-04-29T15:50:11.412Z,64.20
2023-04-29T15:55:13.678Z,65.30
2023-04-29T16:00:16.390Z,64.90
2023-04-29T16:05:18.442Z,64.70
2023-04-29T16:10:20.677Z,65.80
2023-04-29T16:15:22.957Z,66.60
2023-04-29T16:20:25.911Z,67.00
2023-04-29T16:25:28.371Z,67.60
2023-04-29T16:30:30.488Z,69.70
2023-04-29T16:35:32.811Z,68.80
2023-04-29T16:40:35.217Z,65.60
2023-04-29T16:45:37.345Z,66.90
2023-04-29T16:50:39.568Z,67.50
2023-04-29T16:55:46.007Z,67.30
2023-04-29T17:00:48.240Z,67.80
2023-04-29T17:05:50.446Z,66.90
2023-04-29T17:10:52.574Z,67.30
2023-04-29T17:15:54.753Z,68.60
2023-04-29T17:20:56.966Z,67.20
2023-04-29T17:25:59.126Z,66.60
2023-04-29T17:31:02.572Z,68.10
2023-04-29T17:36:05.955Z,67.90
2023-04-29T17:41:08.195Z,69.00
2023-04-29T17:46:10.492Z,70.70
2023-04-29T17:51:12.782Z,69.00
2023-04-29T17:56:14.925Z,68.80
2023-04-29T18:01:17.149Z,69.70
2023-04-29T18:06:19.396Z,69.70
2023-04-29T18:11:21.598Z,69.40
2023-04-29T18:16:23.932Z,69.20
2023-04-29T18:21:27.741Z,71.80
2023-04-29T18:26:29.937Z,69.80
2023-04-29T18:31:32.222Z,71.10
2023-04-29T18:36:34.522Z,73.40
2023-04-29T18:41:37.171Z,71.40
2023-04-29T18:46:39.587Z,70.40
2023-04-29T18:51:46.838Z,71.60
2023-04-29T18:56:50.273Z,72.50
2023-04-29T19:01:53.256Z,72.50
2023-04-29T19:06:55.578Z,73.40
2023-04-29T19:12:05.447Z,72.70
2023-04-29T19:17:07.736Z,73.30
2023-04-29T19:22:10.081Z,74.20
2023-04-29T19:27:12.656Z,72.70
2023-04-29T19:32:15.287Z,73.10
2023-04-29T19:37:17.750Z,74.20
2023-04-29T19:42:19.868Z,74.40
2023-04-29T19:47:24.173Z,73.80
2023-04-29T19:52:27.020Z,75.00
2023-04-29T19:57:29.116Z,75.60
2023-04-29T20:02:33.079Z,75.40
2023-04-29T20:07:35.529Z,75.10
2023-04-29T20:12:37.727Z,74.90
2023-04-29T20:17:40.182Z,74.50
2023-04-29T20:22:42.567Z,74.70
2023-04-29T20:27:44.784Z,73.80
2023-04-29T20:32:47.328Z,74.40
2023-04-29T20:37:49.748Z,79.20
2023-04-29T20:42:51.951Z,78.30
2023-04-29T20:47:54.693Z,77.70
2023-04-29T20:52:57.011Z,76.50
2023-04-29T20:57:59.137Z,76.70
2023-04-29T21:03:01.712Z,77.50
2023-04-29T21:08:03.996Z,76.40
2023-04-29T21:13:06.182Z,76.80
2023-04-29T21:18:08.391Z,78.50
2023-04-29T21:23:10.601Z,77.90
2023-04-29T21:28:14.317Z,78.50
2023-04-29T21:33:17.725Z,78.40
2023-04-29T21:38:19.903Z,77.70
2023-04-29T21:43:22.070Z,77.70
2023-04-29T21:48:25.341Z,79.20
2023-04-29T21:53:27.525Z,78.10
2023-04-29T21:58:29.678Z,78.60
2023-04-29T22:03:32.035Z,78.50
2023-04-29T22:08:34.236Z,79.00
2023-04-29T22:13:36.496Z,79.50
2023-04-29T22:18:38.907Z,79.10
2023-04-29T22:23:42.016Z,79.00
2023-04-29T22:28:44.379Z,79.00
2023-04-29T22:33:46.622Z,79.60
2023-04-29T22:38:49.104Z,79.10
2023-04-29T22:43:57.224Z,78.80
2023-04-29T22:48:59.709Z,80.10
2023-04-29T22:54:01.926Z,79.50
2023-04-29T22:59:04.140Z,80.00
2023-04-29T23:04:06.428Z,80.10
2023-04-29T23:09:08.799Z,80.60
2023-04-29T23:14:11.171Z,80.70
2023-04-29T23:19:13.407Z,80.50
2023-04-29T23:24:15.667Z,79.80
2023-04-29T23:29:18.079Z,80.40
2023-04-29T23:34:20.481Z,79.80
2023-04-29T23:39:22.789Z,80.50
2023-04-29T23:44:25.475Z,81.10
2023-04-29T23:49:28.728Z,80.60
2023-04-29T23:54:30.984Z,80.10
2023-04-29T23:59:33.175Z,81.20
